createdAt,value
2022-08-07T00:00:18.690Z,2.95
2022-08-07T00:02:47.268Z,3.08
2022-08-07T00:05:15.237Z,3.00
2022-08-07T00:07:42.769Z,2.85
2022-08-07T00:10:30.393Z,2.92
2022-08-07T00:13:02.043Z,3.10
2022-08-07T00:15:38.082Z,2.67
2022-08-07T00:18:20.264Z,3.10
2022-08-07T00:20:55.124Z,2.87
2022-08-07T00:23:24.556Z,2.92
2022-08-07T00:26:00.073Z,3.47
2022-08-07T00:28:33.572Z,3.30
2022-08-07T00:31:05.959Z,3.22
2022-08-07T00:33:35.645Z,3.55
2022-08-07T00:36:04.391Z,3.10
2022-08-07T00:38:33.364Z,2.70
2022-08-07T00:41:01.384Z,3.15
2022-08-07T00:44:02.024Z,3.55
2022-08-07T00:46:16.892Z,3.28
2022-08-07T00:48:45.689Z,3.42
2022-08-07T00:51:17.619Z,3.45
2022-08-07T00:53:50.775Z,3.37
2022-08-07T00:56:23.526Z,3.70
2022-08-07T00:58:58.866Z,3.17
2022-08-07T01:01:26.656Z,3.67
2022-08-07T01:04:00.033Z,3.53
2022-08-07T01:06:29.462Z,3.62
2022-08-07T01:08:58.564Z,3.60
2022-08-07T01:12:10.064Z,3.97
2022-08-07T01:14:21.304Z,3.55
2022-08-07T01:16:56.890Z,3.45
2022-08-07T01:19:27.147Z,3.53
2022-08-07T01:22:00.470Z,3.53
2022-08-07T01:24:31.108Z,3.85
2022-08-07T01:27:00.348Z,3.70
2022-08-07T01:29:31.444Z,3.90
2022-08-07T01:32:05.444Z,3.87
2022-08-07T01:34:33.750Z,3.90
2022-08-07T01:37:02.408Z,3.80
2022-08-07T01:39:41.154Z,3.45
2022-08-07T01:42:37.994Z,3.50
2022-08-07T01:45:10.089Z,4.03
2022-08-07T01:48:18.254Z,3.72
2022-08-07T01:50:38.323Z,3.42
2022-08-07T01:53:21.095Z,3.65
2022-08-07T01:55:53.806Z,3.60
2022-08-07T01:58:29.451Z,4.22
2022-08-07T02:01:09.703Z,3.47
2022-08-07T02:03:48.552Z,3.72
2022-08-07T02:06:31.867Z,3.92
2022-08-07T02:09:04.393Z,4.40
2022-08-07T02:12:03.894Z,3.87
2022-08-07T02:14:40.403Z,4.30
2022-08-07T02:17:13.594Z,4.37
2022-08-07T02:20:04.525Z,4.00
2022-08-07T02:22:38.288Z,4.18
2022-08-07T02:25:13.907Z,4.15
2022-08-07T02:27:51.952Z,4.00
2022-08-07T02:30:21.148Z,3.85
2022-08-07T02:33:01.009Z,4.10
2022-08-07T02:36:29.028Z,4.03
2022-08-07T02:38:31.895Z,4.15
2022-08-07T02:41:01.368Z,4.20
2022-08-07T02:43:33.826Z,4.25
2022-08-07T02:46:02.850Z,4.18
2022-08-07T02:48:31.660Z,4.18
2022-08-07T02:51:06.731Z,4.47
2022-08-07T02:56:17.547Z,4.90
2022-08-07T02:58:50.798Z,3.80
2022-08-07T03:01:36.123Z,4.25
2022-08-07T03:04:13.059Z,4.28
2022-08-07T03:06:45.939Z,4.32
2022-08-07T03:09:14.763Z,3.92
2022-08-07T03:12:05.320Z,4.03
2022-08-07T03:14:36.370Z,3.83
2022-08-07T03:17:05.358Z,4.20
2022-08-07T03:19:37.411Z,3.97
2022-08-07T03:22:06.821Z,4.50
2022-08-07T03:24:34.901Z,4.47
2022-08-07T03:27:09.053Z,4.28
2022-08-07T03:29:46.183Z,4.10
2022-08-07T03:32:29.728Z,4.03
2022-08-07T03:35:01.077Z,4.43
2022-08-07T03:37:54.107Z,4.43
2022-08-07T03:40:30.837Z,4.10
2022-08-07T03:43:00.580Z,4.32
2022-08-07T03:45:31.041Z,4.18
2022-08-07T03:48:00.728Z,3.85
2022-08-07T03:50:30.006Z,4.32
2022-08-07T03:52:59.857Z,3.92
2022-08-07T03:55:46.097Z,4.00
2022-08-07T03:59:06.730Z,3.92
2022-08-07T04:01:13.876Z,4.10
2022-08-07T04:03:53.650Z,4.20
2022-08-07T04:06:37.594Z,4.47
2022-08-07T04:09:08.359Z,4.03
2022-08-07T04:12:24.614Z,3.67
2022-08-07T04:14:38.144Z,4.22
2022-08-07T04:17:19.928Z,4.45
2022-08-07T04:19:52.877Z,4.00
2022-08-07T04:22:29.341Z,4.25
2022-08-07T04:25:01.102Z,4.22
2022-08-07T04:27:35.704Z,4.20
2022-08-07T04:30:11.662Z,3.90
2022-08-07T04:32:44.933Z,4.65
2022-08-07T04:35:16.464Z,4.30
2022-08-07T04:38:02.842Z,4.12
2022-08-07T04:40:32.404Z,4.93
2022-08-07T04:43:01.945Z,4.07
2022-08-07T04:46:01.693Z,4.53
2022-08-07T04:48:38.553Z,4.18
2022-08-07T04:51:28.544Z,4.35
2022-08-07T04:54:33.326Z,4.57
2022-08-07T04:58:24.121Z,4.32
2022-08-07T05:00:30.641Z,4.47
2022-08-07T05:03:16.786Z,3.92
2022-08-07T05:06:16.422Z,4.25
2022-08-07T05:09:00.878Z,3.78
2022-08-07T05:11:57.035Z,3.80
2022-08-07T05:14:52.508Z,4.25
2022-08-07T05:17:51.548Z,4.23
2022-08-07T05:20:12.414Z,3.75
2022-08-07T05:22:41.779Z,4.15
2022-08-07T05:25:11.754Z,4.05
2022-08-07T05:30:42.922Z,4.80
2022-08-07T05:33:11.899Z,4.15
2022-08-07T05:35:41.918Z,3.70
2022-08-07T05:38:10.751Z,3.92
2022-08-07T05:40:50.290Z,4.25
2022-08-07T05:43:19.483Z,3.90
2022-08-07T05:46:07.299Z,3.85
2022-08-07T05:48:35.533Z,4.07
2022-08-07T05:51:04.021Z,4.20
2022-08-07T05:54:12.940Z,3.67
2022-08-07T05:56:29.926Z,3.90
2022-08-07T05:58:59.445Z,4.05
2022-08-07T06:01:35.919Z,3.80
2022-08-07T06:04:05.382Z,3.87
2022-08-07T06:06:35.040Z,3.58
2022-08-07T06:09:04.576Z,3.72
2022-08-07T06:11:34.664Z,3.50
2022-08-07T06:14:12.014Z,3.70
2022-08-07T06:16:44.369Z,4.00
2022-08-07T06:19:52.143Z,3.58
2022-08-07T06:22:16.647Z,3.25
2022-08-07T06:25:00.904Z,3.12
2022-08-07T06:27:59.631Z,2.90
2022-08-07T06:30:24.297Z,3.40
2022-08-07T06:33:15.582Z,3.08
2022-08-07T06:35:48.148Z,3.55
2022-08-07T06:38:32.121Z,3.70
2022-08-07T06:41:00.517Z,3.10
2022-08-07T06:43:39.230Z,3.70
2022-08-07T06:46:12.222Z,3.85
2022-08-07T06:48:41.881Z,3.37
2022-08-07T06:51:31.303Z,3.12
2022-08-07T06:55:29.351Z,3.60
2022-08-07T06:56:52.082Z,3.33
2022-08-07T07:00:12.200Z,3.22
2022-08-07T07:02:53.965Z,3.15
2022-08-07T07:05:12.582Z,3.60
2022-08-07T07:07:59.288Z,2.92
2022-08-07T07:10:31.476Z,3.10
2022-08-07T07:13:10.012Z,3.10
2022-08-07T07:15:43.124Z,2.90
2022-08-07T07:18:47.932Z,2.80
2022-08-07T07:21:20.906Z,3.10
2022-08-07T07:24:08.992Z,3.15
2022-08-07T07:26:37.901Z,2.97
2022-08-07T07:29:55.988Z,2.42
2022-08-07T07:32:02.520Z,2.28
2022-08-07T07:34:32.303Z,2.28
2022-08-07T07:37:14.759Z,2.20
2022-08-07T07:39:55.336Z,2.45
2022-08-07T07:42:33.033Z,2.40
2022-08-07T07:45:02.499Z,2.40
2022-08-07T07:47:42.819Z,2.50
2022-08-07T07:50:32.840Z,2.28
2022-08-07T07:53:20.410Z,1.90
2022-08-07T07:55:57.707Z,2.10
2022-08-07T07:58:40.197Z,2.17
2022-08-07T08:02:01.812Z,1.58
2022-08-07T08:04:09.987Z,2.03
2022-08-07T08:06:50.699Z,2.17
2022-08-07T08:09:22.779Z,1.95
2022-08-07T08:12:02.199Z,1.75
2022-08-07T08:14:36.361Z,1.62
2022-08-07T08:17:55.677Z,1.65
2022-08-07T08:20:18.824Z,1.42
2022-08-07T08:23:08.178Z,1.50
2022-08-07T08:25:58.243Z,1.37
2022-08-07T08:28:37.732Z,1.50
2022-08-07T08:31:15.977Z,1.12
2022-08-07T08:33:49.590Z,1.40
2022-08-07T08:36:29.596Z,1.42
2022-08-07T08:39:01.962Z,1.17
2022-08-07T08:41:58.854Z,1.20
2022-08-07T08:44:53.880Z,1.30
2022-08-07T08:47:27.083Z,1.73
2022-08-07T08:50:38.819Z,1.35
2022-08-07T08:53:57.115Z,1.23
2022-08-07T08:56:31.287Z,1.20
2022-08-07T08:59:14.132Z,1.02
2022-08-07T09:01:49.529Z,1.30
2022-08-07T09:04:40.689Z,1.37
2022-08-07T09:07:45.995Z,1.80
2022-08-07T09:10:28.337Z,1.40
2022-08-07T09:13:19.567Z,1.20
2022-08-07T09:16:21.525Z,1.52
2022-08-07T09:19:52.095Z,1.40
2022-08-07T09:24:27.447Z,3.28
2022-08-07T09:25:14.457Z,2.00
2022-08-07T09:28:05.025Z,1.70
2022-08-07T09:30:46.223Z,1.60
2022-08-07T09:33:57.538Z,1.40
2022-08-07T09:36:37.290Z,1.40
2022-08-07T09:39:55.207Z,2.03
2022-08-07T09:42:50.252Z,2.10
2022-08-07T09:47:24.104Z,2.10
2022-08-07T09:50:01.712Z,2.10
2022-08-07T09:52:34.685Z,2.20
2022-08-07T09:55:02.525Z,2.40
2022-08-07T09:57:58.236Z,2.03
2022-08-07T10:00:31.956Z,2.60
2022-08-07T10:04:07.173Z,2.17
2022-08-07T10:06:42.803Z,2.30
2022-08-07T10:10:00.329Z,2.50
2022-08-07T10:12:55.315Z,2.55
2022-08-07T10:15:44.433Z,2.72
2022-08-07T10:18:35.818Z,3.10
2022-08-07T10:21:19.966Z,2.37
2022-08-07T10:24:41.074Z,3.00
2022-08-07T10:27:51.105Z,2.90
2022-08-07T10:30:20.354Z,12.27
2022-08-07T10:33:08.485Z,14.10
2022-08-07T10:36:11.230Z,9.73
2022-08-07T10:38:51.229Z,3.75
2022-08-07T10:41:51.749Z,6.75
2022-08-07T10:44:37.369Z,3.28
2022-08-07T10:47:14.225Z,3.55
2022-08-07T10:49:51.089Z,7.72
2022-08-07T10:52:31.756Z,4.00
2022-08-07T10:55:37.687Z,3.47
2022-08-07T10:58:31.950Z,4.53
2022-08-07T11:03:54.990Z,4.03
2022-08-07T11:06:51.030Z,3.60
2022-08-07T11:10:10.159Z,4.90
2022-08-07T11:12:38.865Z,2.50
2022-08-07T11:15:31.848Z,4.15
2022-08-07T11:21:14.083Z,3.42
2022-08-07T11:23:48.465Z,2.90
2022-08-07T11:26:34.055Z,2.37
2022-08-07T11:29:13.121Z,2.50
2022-08-07T11:32:08.910Z,2.90
2022-08-07T11:34:46.970Z,2.53
2022-08-07T11:37:38.611Z,3.40
2022-08-07T11:40:50.038Z,2.30
2022-08-07T11:43:54.280Z,2.60
2022-08-07T11:46:44.410Z,2.97
2022-08-07T11:50:25.271Z,2.95
2022-08-07T11:53:05.239Z,3.40
2022-08-07T11:56:09.273Z,6.78
2022-08-07T12:00:08.320Z,2.97
2022-08-07T12:02:33.143Z,2.87
2022-08-07T12:05:28.850Z,2.85
2022-08-07T12:08:25.846Z,2.40
2022-08-07T12:11:20.414Z,3.83
2022-08-07T12:14:08.503Z,3.42
2022-08-07T12:16:44.554Z,2.50
2022-08-07T12:19:35.324Z,3.00
2022-08-07T12:22:36.986Z,2.97
2022-08-07T12:26:21.338Z,3.00
2022-08-07T12:28:57.463Z,3.00
2022-08-07T12:32:02.220Z,2.87
2022-08-07T12:34:33.355Z,3.03
2022-08-07T12:37:01.264Z,3.17
2022-08-07T12:39:42.439Z,2.80
2022-08-07T12:42:13.170Z,3.00
2022-08-07T12:44:45.939Z,3.05
2022-08-07T12:47:58.158Z,2.92
2022-08-07T12:50:49.063Z,3.15
2022-08-07T12:53:24.434Z,2.85
2022-08-07T12:56:10.542Z,2.75
2022-08-07T12:58:43.962Z,3.00
2022-08-07T13:01:39.563Z,2.60
2022-08-07T13:04:32.652Z,2.62
2022-08-07T13:07:17.958Z,2.80
2022-08-07T13:10:37.493Z,2.83
2022-08-07T13:13:09.457Z,2.90
2022-08-07T13:16:06.194Z,2.92
2022-08-07T13:18:48.981Z,3.20
2022-08-07T13:21:50.151Z,2.85
2022-08-07T13:24:52.429Z,2.65
2022-08-07T13:28:05.635Z,2.97
2022-08-07T13:30:19.758Z,2.60
2022-08-07T13:34:31.954Z,2.80
2022-08-07T13:36:17.424Z,2.85
2022-08-07T13:39:12.718Z,3.00
2022-08-07T13:41:54.732Z,2.90
2022-08-07T13:44:38.973Z,2.50
2022-08-07T13:47:09.330Z,2.90
2022-08-07T13:50:34.181Z,2.60
2022-08-07T13:52:39.578Z,2.70
2022-08-07T13:55:19.289Z,2.87
2022-08-07T13:58:31.709Z,2.95
2022-08-07T14:01:20.364Z,2.60
2022-08-07T14:04:05.237Z,2.72
2022-08-07T14:06:38.729Z,2.80
2022-08-07T14:09:10.030Z,2.83
2022-08-07T14:12:07.216Z,2.72
2022-08-07T14:14:51.546Z,2.72
2022-08-07T14:18:12.236Z,2.85
2022-08-07T14:20:42.483Z,2.85
2022-08-07T14:23:11.535Z,3.05
2022-08-07T14:25:45.990Z,2.45
2022-08-07T14:28:17.015Z,3.25
2022-08-07T14:30:52.034Z,2.92
2022-08-07T14:33:22.468Z,3.03
2022-08-07T14:35:58.684Z,3.35
2022-08-07T14:38:31.265Z,2.70
2022-08-07T14:41:14.932Z,2.87
2022-08-07T14:43:59.200Z,3.35
2022-08-07T14:46:33.206Z,2.62
2022-08-07T14:49:57.581Z,2.72
2022-08-07T14:52:03.820Z,2.78
2022-08-07T14:54:35.703Z,2.40
2022-08-07T14:57:18.728Z,2.80
2022-08-07T15:05:24.835Z,2.83
2022-08-07T15:07:53.660Z,2.60
2022-08-07T15:13:19.406Z,3.03
2022-08-07T15:15:52.541Z,2.67
2022-08-07T15:18:33.659Z,2.60
2022-08-07T15:26:58.666Z,3.15
2022-08-07T15:30:04.544Z,2.92
2022-08-07T15:35:15.190Z,2.60
2022-08-07T15:38:17.443Z,2.67
2022-08-07T15:40:37.992Z,2.80
2022-08-07T15:43:53.558Z,3.25
2022-08-07T15:46:32.360Z,3.03
2022-08-07T15:49:12.960Z,2.55
2022-08-07T15:54:33.985Z,2.80
2022-08-07T15:57:10.643Z,2.62
2022-08-07T15:59:59.219Z,2.80
2022-08-07T16:02:31.248Z,2.87
2022-08-07T16:05:03.512Z,2.67
2022-08-07T16:08:30.419Z,2.70
2022-08-07T16:10:26.169Z,3.28
2022-08-07T16:13:57.971Z,2.80
2022-08-07T16:16:47.869Z,2.80
2022-08-07T16:19:58.954Z,3.00
2022-08-07T16:22:38.788Z,2.55
2022-08-07T16:25:54.141Z,2.40
2022-08-07T16:30:07.439Z,2.58
2022-08-07T16:31:51.045Z,2.53
2022-08-07T16:34:23.797Z,2.85
2022-08-07T16:37:02.710Z,2.83
2022-08-07T16:40:09.516Z,2.60
2022-08-07T16:43:04.368Z,2.67
2022-08-07T16:46:11.039Z,2.87
2022-08-07T16:50:20.804Z,3.10
2022-08-07T16:52:51.819Z,4.72
2022-08-07T16:55:48.066Z,2.97
2022-08-07T16:59:10.173Z,2.85
2022-08-07T17:04:36.969Z,2.72
2022-08-07T17:07:51.589Z,2.62
2022-08-07T17:10:32.349Z,2.80
2022-08-07T17:13:03.579Z,2.47
2022-08-07T17:15:44.448Z,2.90
2022-08-07T17:18:27.515Z,2.85
2022-08-07T17:20:55.899Z,3.08
2022-08-07T17:23:23.175Z,4.10
2022-08-07T17:26:06.067Z,3.78
2022-08-07T17:30:14.284Z,3.17
2022-08-07T17:32:58.366Z,3.00
2022-08-07T17:35:50.411Z,2.92
2022-08-07T17:38:33.860Z,2.53
2022-08-07T17:42:04.455Z,3.10
2022-08-07T17:44:50.722Z,2.53
2022-08-07T17:47:37.696Z,2.60
2022-08-07T17:50:22.619Z,2.65
2022-08-07T17:53:06.023Z,2.80
2022-08-07T17:56:15.455Z,2.60
2022-08-07T17:58:56.795Z,2.37
2022-08-07T18:01:36.754Z,2.55
2022-08-07T18:04:35.330Z,2.42
2022-08-07T18:07:22.904Z,2.42
2022-08-07T18:10:37.381Z,2.42
2022-08-07T18:13:43.511Z,2.20
2022-08-07T18:16:34.331Z,2.10
2022-08-07T18:21:04.512Z,2.12
2022-08-07T18:22:26.517Z,2.40
2022-08-07T18:25:01.804Z,2.45
2022-08-07T18:28:05.003Z,2.65
2022-08-07T18:31:04.234Z,2.50
2022-08-07T18:33:55.083Z,2.87
2022-08-07T18:37:00.385Z,2.25
2022-08-07T18:40:08.524Z,2.10
2022-08-07T18:42:43.395Z,2.37
2022-08-07T18:45:39.881Z,2.22
2022-08-07T18:50:05.355Z,2.40
2022-08-07T18:52:38.899Z,2.30
2022-08-07T18:54:30.767Z,2.70
2022-08-07T18:57:31.048Z,2.58
2022-08-07T19:00:33.479Z,1.98
2022-08-07T19:03:01.715Z,2.12
2022-08-07T19:06:03.938Z,2.35
2022-08-07T19:08:20.341Z,2.30
2022-08-07T19:11:36.691Z,2.35
2022-08-07T19:14:17.279Z,2.28
2022-08-07T19:17:07.903Z,2.72
2022-08-07T19:19:59.316Z,2.30
2022-08-07T19:22:38.206Z,2.20
2022-08-07T19:26:23.467Z,1.90
2022-08-07T19:28:29.554Z,2.10
2022-08-07T19:31:41.455Z,2.05
2022-08-07T19:33:58.375Z,1.70
2022-08-07T19:36:27.740Z,2.00
2022-08-07T19:38:59.468Z,1.95
2022-08-07T19:41:39.121Z,2.05
2022-08-07T19:44:31.471Z,1.70
2022-08-07T19:47:06.857Z,1.42
2022-08-07T19:49:57.581Z,1.67
2022-08-07T19:52:31.332Z,1.55
2022-08-07T19:54:59.872Z,1.50
2022-08-07T19:57:51.305Z,1.65
2022-08-07T20:00:28.078Z,1.50
2022-08-07T20:03:02.944Z,1.60
2022-08-07T20:05:59.925Z,1.50
2022-08-07T20:08:30.360Z,1.50
2022-08-07T20:11:03.958Z,1.45
2022-08-07T20:13:50.248Z,1.60
2022-08-07T20:16:34.840Z,1.67
2022-08-07T20:19:10.070Z,1.58
2022-08-07T20:21:47.294Z,1.65
2022-08-07T20:24:22.694Z,1.35
2022-08-07T20:26:54.528Z,1.50
2022-08-07T20:29:48.671Z,1.25
2022-08-07T20:32:22.988Z,1.37
2022-08-07T20:34:58.054Z,1.55
2022-08-07T20:37:33.781Z,1.65
2022-08-07T20:40:05.409Z,1.23
2022-08-07T20:42:56.211Z,1.40
2022-08-07T20:48:29.051Z,1.33
2022-08-07T20:51:02.952Z,1.10
2022-08-07T20:54:02.909Z,1.40
2022-08-07T20:56:28.609Z,1.30
2022-08-07T20:58:59.221Z,1.50
2022-08-07T21:01:36.322Z,1.27
2022-08-07T21:04:22.266Z,1.20
2022-08-07T21:06:55.103Z,1.30
2022-08-07T21:09:35.395Z,1.33
2022-08-07T21:12:28.870Z,1.15
2022-08-07T21:15:00.924Z,1.30
2022-08-07T21:18:01.876Z,1.12
2022-08-07T21:20:29.671Z,1.12
2022-08-07T21:23:27.878Z,1.12
2022-08-07T21:26:05.085Z,1.48
2022-08-07T21:28:50.898Z,1.27
2022-08-07T21:31:49.845Z,1.45
2022-08-07T21:35:05.829Z,1.15
2022-08-07T21:38:09.310Z,1.25
2022-08-07T21:40:43.660Z,1.67
2022-08-07T21:44:03.724Z,1.27
2022-08-07T21:46:45.436Z,1.23
2022-08-07T21:50:01.206Z,1.60
2022-08-07T21:52:37.075Z,1.35
2022-08-07T21:55:28.171Z,1.45
2022-08-07T21:58:35.835Z,1.20
2022-08-07T22:01:22.475Z,1.20
2022-08-07T22:04:17.737Z,1.33
2022-08-07T22:07:07.673Z,1.60
2022-08-07T22:09:53.793Z,1.30
2022-08-07T22:12:58.918Z,1.30
2022-08-07T22:16:42.409Z,1.30
2022-08-07T22:18:40.930Z,1.20
2022-08-07T22:21:21.270Z,1.52
2022-08-07T22:24:04.406Z,1.30
2022-08-07T22:26:53.893Z,1.23
2022-08-07T22:29:48.146Z,1.30
2022-08-07T22:32:35.472Z,1.25
2022-08-07T22:35:05.149Z,1.15
2022-08-07T22:38:25.810Z,1.15
2022-08-07T22:41:02.873Z,1.17
2022-08-07T22:43:37.522Z,1.00
2022-08-07T22:47:02.851Z,1.25
2022-08-07T22:49:11.204Z,0.90
2022-08-07T22:51:52.311Z,1.15
2022-08-07T22:54:49.252Z,1.20
2022-08-07T22:57:31.924Z,1.37
2022-08-07T23:00:16.944Z,1.10
2022-08-07T23:06:15.216Z,1.77
2022-08-07T23:10:03.889Z,1.40
2022-08-07T23:12:53.875Z,1.17
2022-08-07T23:16:04.742Z,1.48
2022-08-07T23:18:32.097Z,1.30
2022-08-07T23:21:18.305Z,1.30
2022-08-07T23:24:16.724Z,1.48
2022-08-07T23:26:56.734Z,1.80
2022-08-07T23:29:43.313Z,1.70
2022-08-07T23:34:20.020Z,2.20
2022-08-07T23:35:58.484Z,1.70
2022-08-07T23:38:42.916Z,1.55
2022-08-07T23:41:33.410Z,1.48
2022-08-07T23:44:06.034Z,1.60
2022-08-07T23:46:43.328Z,1.77
2022-08-07T23:49:25.224Z,1.67
2022-08-07T23:52:59.825Z,1.67
2022-08-07T23:55:47.007Z,1.55
2022-08-07T23:58:26.377Z,1.75
